Austin/Bergstrom AFB, Texas
Current Conditions -  °F | °C
As of 9:53 PM on Friday 28 Nov 2014 (Local Time) from KAUS Reporting Station
Clear Clear  
Wind Chill: 51°   Ceiling: Unl
Heat Index: 51°   Visibility: 10mi
Dew Point: 46°   Wind: 8mph
Humidity: 83%   Direction: 190°S
Pressure: 30.11"   Gusts: NA
Location:  30.2°N, 97.68°W
Report Text: KAUS 290353Z 19007KT 10SM CLR 11/08 A3011 RMK AO2 SLP195 T01060078
Loading
Personal Weather Stations






























Interactive Weather Map New forecast layout! Learn more

10-Day Weather Forecast

Advertisements
Track Severe Weather on mobile